Station Historical Data
Daily Summary for December 8, 2017 Units:  Both    English   Metric
« Previous Day
Next Day »
Daily Weekly Monthly Yearly Custom
  High: Low: Average:
Temperature: 31.4 °F /  -0.3 °C 24.3 °F /  -4.3 °C 28 °F /  -2.2 °C
Dew Point: 20.8 °F /  -6.2 °C 13.4 °F /  -10.3 °C 16.7 °F /  -8.5 °C
Humidity: 84% 49% 63%
Wind Speed: 13.0mph /  20.9km/h - 6.2mph /  10km/h
Wind Gust: 22.0mph /  35.4km/h - -
Wind- - SW
Pressure: 30.01 in /  1016.1 hPa 29.90 in /  1012.4 hPa -
Precipitation: 0.01 in /  0.25 mm    
Historical Graphs
 
 
Tabular Data for December 8, 2017
Time Temperature Dew Point Pressure Wind Wind Speed Wind Gust Humidity Rainfall Rate (Hourly)
00:00 28.2 °F /  -2.1 °C 14.1 °F /  -9.9 °C 29.99in /  1015.5hPa West 5.0mph /  8km/h 10.0mph /  16.1km/h 55% 0.00in /  0mm
00:05 28.2 °F /  -2.1 °C 14.1 °F /  -9.9 °C 29.98in /  1015.1hPa NNW 6.0mph /  9.7km/h 13.0mph /  20.9km/h 55% 0.00in /  0mm
00:10 28.3 °F /  -2.1 °C 14.2 °F /  -9.9 °C 29.99in /  1015.5hPa WSW 4.0mph /  6.4km/h 10.0mph /  16.1km/h 55% 0.00in /  0mm
00:15 28.4 °F /  -2 °C 14.3 °F /  -9.8 °C 29.99in /  1015.5hPa WSW 4.0mph /  6.4km/h 10.0mph /  16.1km/h 55% 0.00in /  0mm
00:20 28.3 °F /  -2.1 °C 14.2 °F /  -9.9 °C 29.98in /  1015.1hPa West 7.0mph /  11.3km/h 10.0mph /  16.1km/h 55% 0.00in /  0mm
00:25 28.4 °F /  -2 °C 13.9 °F /  -10.1 °C 29.98in /  1015.1hPa West 6.0mph /  9.7km/h 10.0mph /  16.1km/h 54% 0.00in /  0mm
00:30 28.5 °F /  -1.9 °C 13.5 °F /  -10.3 °C 29.98in /  1015.1hPa WSW 4.0mph /  6.4km/h 8.0mph /  12.9km/h 53% 0.00in /  0mm
00:35 28.5 °F /  -1.9 °C 13.5 °F /  -10.3 °C 29.98in /  1015.1hPa West 3.0mph /  4.8km/h 9.0mph /  14.5km/h 53% 0.00in /  0mm
00:40 28.5 °F /  -1.9 °C 13.5 °F /  -10.3 °C 29.98in /  1015.1hPa SW 4.0mph /  6.4km/h 13.0mph /  20.9km/h 53% 0.00in /  0mm
00:45 28.5 °F /  -1.9 °C 13.5 °F /  -10.3 °C 29.98in /  1015.1hPa West 6.0mph /  9.7km/h 8.0mph /  12.9km/h 53% 0.00in /  0mm
00:50 28.5 °F /  -1.9 °C 13.5 °F /  -10.3 °C 29.98in /  1015.1hPa WSW 5.0mph /  8km/h 11.0mph /  17.7km/h 53% 0.00in /  0mm
00:55 28.5 °F /  -1.9 °C 13.5 °F /  -10.3 °C 29.98in /  1015.1hPa WSW 5.0mph /  8km/h 12.0mph /  19.3km/h 53% 0.00in /  0mm
01:00 28.5 °F /  -1.9 °C 13.5 °F /  -10.3 °C 29.98in /  1015.1hPa WSW 6.0mph /  9.7km/h 12.0mph /  19.3km/h 53% 0.00in /  0mm
01:05 28.4 °F /  -2 °C 13.4 °F /  -10.3 °C 29.98in /  1015.1hPa WSW 6.0mph /  9.7km/h 14.0mph /  22.5km/h 53% 0.00in /  0mm
01:10 28.3 °F /  -2.1 °C 13.8 °F /  -10.1 °C 29.98in /  1015.1hPa West 9.0mph /  14.5km/h 9.0mph /  14.5km/h 54% 0.00in /  0mm
01:15 28.3 °F /  -2.1 °C 14.2 °F /  -9.9 °C 29.98in /  1015.1hPa West 7.0mph /  11.3km/h 9.0mph /  14.5km/h 55% 0.00in /  0mm
01:20 28.3 °F /  -2.1 °C 14.2 °F /  -9.9 °C 29.98in /  1015.1hPa WSW 3.0mph /  4.8km/h 10.0mph /  16.1km/h 55% 0.00in /  0mm
01:25 28.3 °F /  -2.1 °C 14.2 °F /  -9.9 °C 29.98in /  1015.1hPa WSW 4.0mph /  6.4km/h 10.0mph /  16.1km/h 55% 0.00in /  0mm
01:30 28.2 °F /  -2.1 °C 14.5 °F /  -9.7 °C 29.98in /  1015.1hPa West 4.0mph /  6.4km/h 8.0mph /  12.9km/h 56% 0.00in /  0mm
01:35 28.2 °F /  -2.1 °C 14.5 °F /  -9.7 °C 29.98in /  1015.1hPa WSW 4.0mph /  6.4km/h 7.0mph /  11.3km/h 56% 0.00in /  0mm
01:40 28.2 °F /  -2.1 °C 14.5 °F /  -9.7 °C 29.98in /  1015.1hPa WSW 3.0mph /  4.8km/h 8.0mph /  12.9km/h 56% 0.00in /  0mm
01:45 28.2 °F /  -2.1 °C 14.5 °F /  -9.7 °C 29.97in /  1014.8hPa West 5.0mph /  8km/h 10.0mph /  16.1km/h 56% 0.00in /  0mm
01:50 28.1 °F /  -2.2 °C 14.8 °F /  -9.6 °C 29.98in /  1015.1hPa West 1.0mph /  1.6km/h 7.0mph /  11.3km/h 57% 0.00in /  0mm
01:55 28.1 °F /  -2.2 °C 14.8 °F /  -9.6 °C 29.98in /  1015.1hPa West 4.0mph /  6.4km/h 8.0mph /  12.9km/h 57% 0.00in /  0mm
02:00 28.1 °F /  -2.2 °C 14.8 °F /  -9.6 °C 29.98in /  1015.1hPa WSW 4.0mph /  6.4km/h 8.0mph /  12.9km/h 57% 0.00in /  0mm
02:05 28.1 °F /  -2.2 °C 15.2 °F /  -9.3 °C 29.98in /  1015.1hPa WSW 4.0mph /  6.4km/h 9.0mph /  14.5km/h 58% 0.00in /  0mm
02:10 28.1 °F /  -2.2 °C 15.2 °F /  -9.3 °C 29.98in /  1015.1hPa WSW 6.0mph /  9.7km/h 9.0mph /  14.5km/h 58% 0.00in /  0mm
02:15 28.1 °F /  -2.2 °C 15.6 °F /  -9.1 °C 29.99in /  1015.5hPa SW 5.0mph /  8km/h 10.0mph /  16.1km/h 59% 0.00in /  0mm
02:20 28.1 °F /  -2.2 °C 16.0 °F /  -8.9 °C 29.99in /  1015.5hPa WSW 4.0mph /  6.4km/h 10.0mph /  16.1km/h 60% 0.00in /  0mm
02:25 28.1 °F /  -2.2 °C 16.0 °F /  -8.9 °C 29.99in /  1015.5hPa WNW 4.0mph /  6.4km/h 10.0mph /  16.1km/h 60% 0.00in /  0mm
02:30 28.0 °F /  -2.2 °C 16.3 °F /  -8.7 °C 29.99in /  1015.5hPa West 6.0mph /  9.7km/h 10.0mph /  16.1km/h 61% 0.00in /  0mm
02:35 28.0 °F /  -2.2 °C 16.3 °F /  -8.7 °C 29.99in /  1015.5hPa West 6.0mph /  9.7km/h 12.0mph /  19.3km/h 61% 0.00in /  0mm
02:40 28.0 °F /  -2.2 °C 16.6 °F /  -8.6 °C 29.99in /  1015.5hPa West 6.0mph /  9.7km/h 12.0mph /  19.3km/h 62% 0.00in /  0mm
02:45 28.0 °F /  -2.2 °C 16.6 °F /  -8.6 °C 29.99in /  1015.5hPa West 5.0mph /  8km/h 11.0mph /  17.7km/h 62% 0.00in /  0mm
02:50 27.9 °F /  -2.3 °C 16.6 °F /  -8.6 °C 29.99in /  1015.5hPa WSW 4.0mph /  6.4km/h 7.0mph /  11.3km/h 62% 0.00in /  0mm
02:55 27.8 °F /  -2.3 °C 16.8 °F /  -8.4 °C 29.99in /  1015.5hPa WSW 4.0mph /  6.4km/h 12.0mph /  19.3km/h 63% 0.00in /  0mm
03:05 27.7 °F /  -2.4 °C 17.1 °F /  -8.3 °C 29.99in /  1015.5hPa West 6.0mph /  9.7km/h 13.0mph /  20.9km/h 64% 0.00in /  0mm
03:10 27.6 °F /  -2.4 °C 17.4 °F /  -8.1 °C 29.99in /  1015.5hPa West 4.0mph /  6.4km/h 13.0mph /  20.9km/h 65% 0.00in /  0mm
03:15 27.6 °F /  -2.4 °C 17.4 °F /  -8.1 °C 30.00in /  1015.8hPa West 4.0mph /  6.4km/h 11.0mph /  17.7km/h 65% 0.00in /  0mm
03:20 27.4 °F /  -2.6 °C 17.5 °F /  -8.1 °C 30.00in /  1015.8hPa WSW 7.0mph /  11.3km/h 9.0mph /  14.5km/h 66% 0.00in /  0mm
03:25 27.3 °F /  -2.6 °C 17.4 °F /  -8.1 °C 29.99in /  1015.5hPa West 9.0mph /  14.5km/h 9.0mph /  14.5km/h 66% 0.00in /  0mm
03:30 27.2 °F /  -2.7 °C 17.3 °F /  -8.2 °C 30.00in /  1015.8hPa West 4.0mph /  6.4km/h 9.0mph /  14.5km/h 66% 0.00in /  0mm
03:35 27.0 °F /  -2.8 °C 17.1 °F /  -8.3 °C 30.00in /  1015.8hPa West 2.0mph /  3.2km/h 7.0mph /  11.3km/h 66% 0.00in /  0mm
03:40 26.7 °F /  -2.9 °C 16.9 °F /  -8.4 °C 30.00in /  1015.8hPa West 4.0mph /  6.4km/h 10.0mph /  16.1km/h 66% 0.00in /  0mm
03:45 26.6 °F /  -3 °C 17.1 °F /  -8.3 °C 30.00in /  1015.8hPa West 4.0mph /  6.4km/h 10.0mph /  16.1km/h 67% 0.00in /  0mm
03:50 26.6 °F /  -3 °C 17.1 °F /  -8.3 °C 30.00in /  1015.8hPa West 5.0mph /  8km/h 13.0mph /  20.9km/h 67% 0.00in /  0mm
03:55 26.5 °F /  -3.1 °C 17.0 °F /  -8.3 °C 30.00in /  1015.8hPa West 6.0mph /  9.7km/h 13.0mph /  20.9km/h 67% 0.00in /  0mm
04:00 26.5 °F /  -3.1 °C 17.4 °F /  -8.1 °C 30.00in /  1015.8hPa West 6.0mph /  9.7km/h 11.0mph /  17.7km/h 68% 0.00in /  0mm
04:05 26.5 °F /  -3.1 °C 17.4 °F /  -8.1 °C 30.00in /  1015.8hPa West 5.0mph /  8km/h 11.0mph /  17.7km/h 68% 0.00in /  0mm
04:10 26.4 °F /  -3.1 °C 17.3 °F /  -8.2 °C 30.00in /  1015.8hPa NW 1.0mph /  1.6km/h 8.0mph /  12.9km/h 68% 0.00in /  0mm
04:15 26.4 °F /  -3.1 °C 17.6 °F /  -8 °C 30.00in /  1015.8hPa West 4.0mph /  6.4km/h 9.0mph /  14.5km/h 69% 0.00in /  0mm
04:20 26.4 °F /  -3.1 °C 17.6 °F /  -8 °C 30.00in /  1015.8hPa West 4.0mph /  6.4km/h 10.0mph /  16.1km/h 69% 0.00in /  0mm
04:25 26.5 °F /  -3.1 °C 17.7 °F /  -7.9 °C 30.00in /  1015.8hPa West 5.0mph /  8km/h 11.0mph /  17.7km/h 69% 0.00in /  0mm
04:35 26.4 °F /  -3.1 °C 17.3 °F /  -8.2 °C 30.00in /  1015.8hPa West 3.0mph /  4.8km/h 11.0mph /  17.7km/h 68% 0.00in /  0mm
04:40 26.3 °F /  -3.2 °C 17.2 °F /  -8.2 °C 29.99in /  1015.5hPa West 5.0mph /  8km/h 11.0mph /  17.7km/h 68% 0.00in /  0mm
04:45 26.3 °F /  -3.2 °C 17.2 °F /  -8.2 °C 30.00in /  1015.8hPa WNW 7.0mph /  11.3km/h 15.0mph /  24.1km/h 68% 0.00in /  0mm
04:50 26.3 °F /  -3.2 °C 16.8 °F /  -8.4 °C 30.00in /  1015.8hPa West 7.0mph /  11.3km/h 16.0mph /  25.7km/h 67% 0.00in /  0mm
04:55 26.3 °F /  -3.2 °C 16.5 °F /  -8.6 °C 30.00in /  1015.8hPa West 7.0mph /  11.3km/h 16.0mph /  25.7km/h 66% 0.00in /  0mm
05:00 26.1 °F /  -3.3 °C 16.3 °F /  -8.7 °C 30.00in /  1015.8hPa West 7.0mph /  11.3km/h 16.0mph /  25.7km/h 66% 0.00in /  0mm
05:05 26.1 °F /  -3.3 °C 16.3 °F /  -8.7 °C 30.00in /  1015.8hPa West 7.0mph /  11.3km/h 16.0mph /  25.7km/h 66% 0.00in /  0mm
05:10 26.1 °F /  -3.3 °C 15.9 °F /  -8.9 °C 30.00in /  1015.8hPa West 8.0mph /  12.9km/h 14.0mph /  22.5km/h 65% 0.00in /  0mm
05:15 26.1 °F /  -3.3 °C 15.9 °F /  -8.9 °C 30.00in /  1015.8hPa West 7.0mph /  11.3km/h 12.0mph /  19.3km/h 65% 0.00in /  0mm
05:20 26.0 °F /  -3.3 °C 15.1 °F /  -9.4 °C 30.00in /  1015.8hPa West 7.0mph /  11.3km/h 13.0mph /  20.9km/h 63% 0.00in /  0mm
05:25 26.0 °F /  -3.3 °C 15.1 °F /  -9.4 °C 30.00in /  1015.8hPa West 7.0mph /  11.3km/h 12.0mph /  19.3km/h 63% 0.00in /  0mm
05:30 25.9 °F /  -3.4 °C 15.0 °F /  -9.4 °C 30.00in /  1015.8hPa West 4.0mph /  6.4km/h 9.0mph /  14.5km/h 63% 0.00in /  0mm
05:35 25.9 °F /  -3.4 °C 15.0 °F /  -9.4 °C 29.99in /  1015.5hPa West 5.0mph /  8km/h 9.0mph /  14.5km/h 63% 0.00in /  0mm
05:45 25.9 °F /  -3.4 °C 14.7 °F /  -9.6 °C 30.00in /  1015.8hPa WSW 2.0mph /  3.2km/h 7.0mph /  11.3km/h 62% 0.00in /  0mm
05:50 26.1 °F /  -3.3 °C 15.2 °F /  -9.3 °C 30.00in /  1015.8hPa SSW 2.0mph /  3.2km/h 5.0mph /  8km/h 63% 0.00in /  0mm
05:55 26.1 °F /  -3.3 °C 15.9 °F /  -8.9 °C 30.00in /  1015.8hPa SW 3.0mph /  4.8km/h 6.0mph /  9.7km/h 65% 0.00in /  0mm
06:00 26.1 °F /  -3.3 °C 17.0 °F /  -8.3 °C 30.00in /  1015.8hPa SSW 4.0mph /  6.4km/h 11.0mph /  17.7km/h 68% 0.00in /  0mm
06:05 25.6 °F /  -3.6 °C 18.5 °F /  -7.5 °C 30.00in /  1015.8hPa SW 5.0mph /  8km/h 11.0mph /  17.7km/h 74% 0.00in /  0mm
06:10 25.2 °F /  -3.8 °C 19.0 °F /  -7.2 °C 30.00in /  1015.8hPa WSW 4.0mph /  6.4km/h 9.0mph /  14.5km/h 77% 0.00in /  0mm
06:15 24.8 °F /  -4 °C 19.2 °F /  -7.1 °C 30.00in /  1015.8hPa West 2.0mph /  3.2km/h 6.0mph /  9.7km/h 79% 0.00in /  0mm
06:20 24.5 °F /  -4.2 °C 19.5 °F /  -6.9 °C 30.00in /  1015.8hPa West 2.0mph /  3.2km/h 4.0mph /  6.4km/h 81% 0.00in /  0mm
06:25 24.4 °F /  -4.2 °C 19.7 °F /  -6.8 °C 30.00in /  1015.8hPa Calm   3.0mph /  4.8km/h 82% 0.00in /  0mm
06:30 24.3 °F /  -4.3 °C 19.9 °F /  -6.7 °C 30.00in /  1015.8hPa West 2.0mph /  3.2km/h 6.0mph /  9.7km/h 83% 0.00in /  0mm
06:35 24.4 °F /  -4.2 °C 20.0 °F /  -6.7 °C 30.00in /  1015.8hPa Calm   3.0mph /  4.8km/h 83% 0.00in /  0mm
06:40 24.6 °F /  -4.1 °C 20.5 °F /  -6.4 °C 30.00in /  1015.8hPa NW 2.0mph /  3.2km/h 13.0mph /  20.9km/h 84% 0.00in /  0mm
06:45 24.8 °F /  -4 °C 20.7 °F /  -6.3 °C 30.00in /  1015.8hPa SW 1.0mph /  1.6km/h 8.0mph /  12.9km/h 84% 0.00in /  0mm
06:50 24.9 °F /  -3.9 °C 20.8 °F /  -6.2 °C 30.00in /  1015.8hPa SW 6.0mph /  9.7km/h 10.0mph /  16.1km/h 84% 0.00in /  0mm
06:55 24.9 °F /  -3.9 °C 20.8 °F /  -6.2 °C 29.99in /  1015.5hPa South 3.0mph /  4.8km/h 10.0mph /  16.1km/h 84% 0.00in /  0mm
07:00 24.9 °F /  -3.9 °C 20.8 °F /  -6.2 °C 30.00in /  1015.8hPa SW 6.0mph /  9.7km/h 11.0mph /  17.7km/h 84% 0.00in /  0mm
07:05 24.9 °F /  -3.9 °C 20.8 °F /  -6.2 °C 30.00in /  1015.8hPa SW 6.0mph /  9.7km/h 11.0mph /  17.7km/h 84% 0.00in /  0mm
07:10 24.9 °F /  -3.9 °C 20.5 °F /  -6.4 °C 29.99in /  1015.5hPa SW 5.0mph /  8km/h 9.0mph /  14.5km/h 83% 0.00in /  0mm
07:15 24.9 °F /  -3.9 °C 20.5 °F /  -6.4 °C 29.99in /  1015.5hPa SW 5.0mph /  8km/h 9.0mph /  14.5km/h 83% 0.00in /  0mm
07:20 25.0 °F /  -3.9 °C 20.3 °F /  -6.5 °C 29.99in /  1015.5hPa SW 6.0mph /  9.7km/h 11.0mph /  17.7km/h 82% 0.00in /  0mm
07:25 25.0 °F /  -3.9 °C 20.3 °F /  -6.5 °C 29.99in /  1015.5hPa SW 7.0mph /  11.3km/h 14.0mph /  22.5km/h 82% 0.00in /  0mm
07:30 25.1 °F /  -3.8 °C 20.1 °F /  -6.6 °C 30.00in /  1015.8hPa SW 9.0mph /  14.5km/h 13.0mph /  20.9km/h 81% 0.00in /  0mm
07:35 25.0 °F /  -3.9 °C 20.0 °F /  -6.7 °C 30.00in /  1015.8hPa SW 6.0mph /  9.7km/h 13.0mph /  20.9km/h 81% 0.00in /  0mm
07:40 25.0 °F /  -3.9 °C 20.0 °F /  -6.7 °C 30.00in /  1015.8hPa SW 6.0mph /  9.7km/h 13.0mph /  20.9km/h 81% 0.00in /  0mm
07:45 24.9 °F /  -3.9 °C 19.9 °F /  -6.7 °C 30.00in /  1015.8hPa SSW 6.0mph /  9.7km/h 13.0mph /  20.9km/h 81% 0.00in /  0mm
07:50 24.8 °F /  -4 °C 19.8 °F /  -6.8 °C 30.00in /  1015.8hPa SW 6.0mph /  9.7km/h 10.0mph /  16.1km/h 81% 0.00in /  0mm
07:55 24.8 °F /  -4 °C 19.8 °F /  -6.8 °C 30.00in /  1015.8hPa SE 8.0mph /  12.9km/h 13.0mph /  20.9km/h 81% 0.00in /  0mm
08:00 24.6 °F /  -4.1 °C 19.6 °F /  -6.9 °C 29.99in /  1015.5hPa SSW 7.0mph /  11.3km/h 13.0mph /  20.9km/h 81% 0.00in /  0mm
08:05 24.5 °F /  -4.2 °C 19.5 °F /  -6.9 °C 29.99in /  1015.5hPa South 3.0mph /  4.8km/h 15.0mph /  24.1km/h 81% 0.00in /  0mm
08:10 24.5 °F /  -4.2 °C 19.5 °F /  -6.9 °C 30.00in /  1015.8hPa SSW 7.0mph /  11.3km/h 15.0mph /  24.1km/h 81% 0.00in /  0mm
08:15 24.3 °F /  -4.3 °C 19.6 °F /  -6.9 °C 30.00in /  1015.8hPa SSW 6.0mph /  9.7km/h 13.0mph /  20.9km/h 82% 0.00in /  0mm
08:20 24.3 °F /  -4.3 °C 19.6 °F /  -6.9 °C 30.00in /  1015.8hPa SSW 6.0mph /  9.7km/h 13.0mph /  20.9km/h 82% 0.00in /  0mm
08:25 24.3 °F /  -4.3 °C 19.6 °F /  -6.9 °C 30.00in /  1015.8hPa SSW 6.0mph /  9.7km/h 13.0mph /  20.9km/h 82% 0.00in /  0mm
08:30 24.5 °F /  -4.2 °C 19.8 °F /  -6.8 °C 30.00in /  1015.8hPa SSW 6.0mph /  9.7km/h 13.0mph /  20.9km/h 82% 0.00in /  0mm
08:35 24.7 °F /  -4.1 °C 20.0 °F /  -6.7 °C 30.00in /  1015.8hPa SSW 6.0mph /  9.7km/h 14.0mph /  22.5km/h 82% 0.00in /  0mm
08:40 24.8 °F /  -4 °C 19.8 °F /  -6.8 °C 30.00in /  1015.8hPa SSW 7.0mph /  11.3km/h 14.0mph /  22.5km/h 81% 0.00in /  0mm
08:45 25.0 °F /  -3.9 °C 20.0 °F /  -6.7 °C 30.00in /  1015.8hPa SW 7.0mph /  11.3km/h 17.0mph /  27.4km/h 81% 0.00in /  0mm
08:50 25.2 °F /  -3.8 °C 20.2 °F /  -6.6 °C 30.01in /  1016.1hPa SSW 7.0mph /  11.3km/h 17.0mph /  27.4km/h 81% 0.00in /  0mm
08:55 25.4 °F /  -3.7 °C 20.4 °F /  -6.4 °C 30.00in /  1015.8hPa SW 7.0mph /  11.3km/h 14.0mph /  22.5km/h 81% 0.00in /  0mm
09:00 25.4 °F /  -3.7 °C 20.1 °F /  -6.6 °C 30.00in /  1015.8hPa SW 7.0mph /  11.3km/h 18.0mph /  29km/h 80% 0.00in /  0mm
09:05 25.5 °F /  -3.6 °C 19.9 °F /  -6.7 °C 30.00in /  1015.8hPa South 5.0mph /  8km/h 13.0mph /  20.9km/h 79% 0.00in /  0mm
09:10 25.6 °F /  -3.6 °C 20.0 °F /  -6.7 °C 30.00in /  1015.8hPa SSW 9.0mph /  14.5km/h 17.0mph /  27.4km/h 79% 0.00in /  0mm
09:15 25.8 °F /  -3.4 °C 19.9 °F /  -6.7 °C 30.00in /  1015.8hPa SSE 4.0mph /  6.4km/h 12.0mph /  19.3km/h 78% 0.00in /  0mm
09:20 25.9 °F /  -3.4 °C 20.0 °F /  -6.7 °C 29.99in /  1015.5hPa SSW 8.0mph /  12.9km/h 15.0mph /  24.1km/h 78% 0.00in /  0mm
09:25 26.0 °F /  -3.3 °C 19.8 °F /  -6.8 °C 30.00in /  1015.8hPa SSW 7.0mph /  11.3km/h 15.0mph /  24.1km/h 77% 0.00in /  0mm
09:30 26.0 °F /  -3.3 °C 19.8 °F /  -6.8 °C 30.00in /  1015.8hPa SSW 7.0mph /  11.3km/h 17.0mph /  27.4km/h 77% 0.00in /  0mm
09:35 26.0 °F /  -3.3 °C 19.8 °F /  -6.8 °C 29.99in /  1015.5hPa SSW 8.0mph /  12.9km/h 17.0mph /  27.4km/h 77% 0.00in /  0mm
09:40 26.0 °F /  -3.3 °C 19.5 °F /  -6.9 °C 30.00in /  1015.8hPa WSW 3.0mph /  4.8km/h 17.0mph /  27.4km/h 76% 0.00in /  0mm
09:45 26.1 °F /  -3.3 °C 19.6 °F /  -6.9 °C 29.99in /  1015.5hPa SSW 7.0mph /  11.3km/h 21.0mph /  33.8km/h 76% 0.00in /  0mm
09:50 26.1 °F /  -3.3 °C 19.6 °F /  -6.9 °C 29.99in /  1015.5hPa SSW 5.0mph /  8km/h 12.0mph /  19.3km/h 76% 0.00in /  0mm
09:55 26.1 °F /  -3.3 °C 19.3 °F /  -7.1 °C 29.99in /  1015.5hPa SSW 7.0mph /  11.3km/h 16.0mph /  25.7km/h 75% 0.00in /  0mm
10:00 26.1 °F /  -3.3 °C 19.3 °F /  -7.1 °C 30.00in /  1015.8hPa SSW 7.0mph /  11.3km/h 16.0mph /  25.7km/h 75% 0.00in /  0mm
10:05 26.2 °F /  -3.2 °C 19.4 °F /  -7 °C 30.00in /  1015.8hPa SSW 8.0mph /  12.9km/h 19.0mph /  30.6km/h 75% 0.00in /  0mm
10:10 26.2 °F /  -3.2 °C 19.4 °F /  -7 °C 30.00in /  1015.8hPa SSW 5.0mph /  8km/h 14.0mph /  22.5km/h 75% 0.00in /  0mm
10:15 26.3 °F /  -3.2 °C 19.5 °F /  -6.9 °C 30.00in /  1015.8hPa WSW 8.0mph /  12.9km/h 18.0mph /  29km/h 75% 0.00in /  0mm
10:20 26.4 °F /  -3.1 °C 19.2 °F /  -7.1 °C 30.00in /  1015.8hPa South 5.0mph /  8km/h 12.0mph /  19.3km/h 74% 0.00in /  0mm
10:25 26.4 °F /  -3.1 °C 19.2 °F /  -7.1 °C 30.00in /  1015.8hPa South 5.0mph /  8km/h 14.0mph /  22.5km/h 74% 0.00in /  0mm
10:30 26.5 °F /  -3.1 °C 19.0 °F /  -7.2 °C 30.00in /  1015.8hPa SSW 7.0mph /  11.3km/h 14.0mph /  22.5km/h 73% 0.00in /  0mm
10:35 26.6 °F /  -3 °C 19.1 °F /  -7.2 °C 30.01in /  1016.1hPa SSW 7.0mph /  11.3km/h 15.0mph /  24.1km/h 73% 0.00in /  0mm
10:40 26.6 °F /  -3 °C 18.8 °F /  -7.3 °C 30.00in /  1015.8hPa SSW 8.0mph /  12.9km/h 16.0mph /  25.7km/h 72% 0.00in /  0mm
10:45 26.7 °F /  -2.9 °C 18.9 °F /  -7.3 °C 30.01in /  1016.1hPa SSW 8.0mph /  12.9km/h 17.0mph /  27.4km/h 72% 0.00in /  0mm
10:50 26.8 °F /  -2.9 °C 19.0 °F /  -7.2 °C 30.00in /  1015.8hPa South 8.0mph /  12.9km/h 15.0mph /  24.1km/h 72% 0.00in /  0mm
10:55 26.9 °F /  -2.8 °C 18.7 °F /  -7.4 °C 30.01in /  1016.1hPa SSW 9.0mph /  14.5km/h 19.0mph /  30.6km/h 71% 0.00in /  0mm
11:00 26.9 °F /  -2.8 °C 18.7 °F /  -7.4 °C 30.01in /  1016.1hPa South 10.0mph /  16.1km/h 16.0mph /  25.7km/h 71% 0.00in /  0mm
11:05 27.0 °F /  -2.8 °C 19.2 °F /  -7.1 °C 30.01in /  1016.1hPa SSW 10.0mph /  16.1km/h 19.0mph /  30.6km/h 72% 0.00in /  0mm
11:10 27.2 °F /  -2.7 °C 18.7 °F /  -7.4 °C 30.00in /  1015.8hPa SW 11.0mph /  17.7km/h 19.0mph /  30.6km/h 70% 0.00in /  0mm
11:15 27.4 °F /  -2.6 °C 18.6 °F /  -7.4 °C 30.00in /  1015.8hPa SW 6.0mph /  9.7km/h 19.0mph /  30.6km/h 69% 0.00in /  0mm
11:20 27.5 °F /  -2.5 °C 18.7 °F /  -7.4 °C 29.99in /  1015.5hPa SSW 7.0mph /  11.3km/h 19.0mph /  30.6km/h 69% 0.00in /  0mm
11:25 27.6 °F /  -2.4 °C 18.4 °F /  -7.6 °C 30.00in /  1015.8hPa SW 12.0mph /  19.3km/h 18.0mph /  29km/h 68% 0.00in /  0mm
11:30 27.7 °F /  -2.4 °C 18.2 °F /  -7.7 °C 30.00in /  1015.8hPa WSW 8.0mph /  12.9km/h 13.0mph /  20.9km/h 67% 0.00in /  0mm
11:35 27.7 °F /  -2.4 °C 17.8 °F /  -7.9 °C 29.99in /  1015.5hPa SW 9.0mph /  14.5km/h 20.0mph /  32.2km/h 66% 0.00in /  0mm
11:40 27.7 °F /  -2.4 °C 17.8 °F /  -7.9 °C 29.99in /  1015.5hPa SW 9.0mph /  14.5km/h 20.0mph /  32.2km/h 66% 0.00in /  0mm
11:50 27.7 °F /  -2.4 °C 17.5 °F /  -8.1 °C 29.98in /  1015.1hPa South 7.0mph /  11.3km/h 16.0mph /  25.7km/h 65% 0.00in /  0mm
11:55 27.8 °F /  -2.3 °C 17.6 °F /  -8 °C 29.98in /  1015.1hPa SSW 7.0mph /  11.3km/h 18.0mph /  29km/h 65% 0.00in /  0mm
12:00 27.9 °F /  -2.3 °C 17.6 °F /  -8 °C 29.98in /  1015.1hPa SSW 9.0mph /  14.5km/h 18.0mph /  29km/h 65% 0.00in /  0mm
12:20 28.2 °F /  -2.1 °C 17.2 °F /  -8.2 °C 29.97in /  1014.8hPa SW 9.0mph /  14.5km/h 20.0mph /  32.2km/h 63% 0.00in /  0mm
12:25 28.3 °F /  -2.1 °C 17.7 °F /  -7.9 °C 29.97in /  1014.8hPa SSW 9.0mph /  14.5km/h 21.0mph /  33.8km/h 64% 0.00in /  0mm
12:30 28.6 °F /  -1.9 °C 17.6 °F /  -8 °C 29.97in /  1014.8hPa SSW 9.0mph /  14.5km/h 21.0mph /  33.8km/h 63% 0.00in /  0mm
12:35 29.6 °F /  -1.3 °C 18.2 °F /  -7.7 °C 29.96in /  1014.4hPa South 13.0mph /  20.9km/h 20.0mph /  32.2km/h 62% 0.00in /  0mm
12:40 29.5 °F /  -1.4 °C 17.7 °F /  -7.9 °C 29.96in /  1014.4hPa WSW 11.0mph /  17.7km/h 19.0mph /  30.6km/h 61% 0.00in /  0mm
12:45 29.7 °F /  -1.3 °C 17.9 °F /  -7.8 °C 29.95in /  1014.1hPa SW 8.0mph /  12.9km/h 20.0mph /  32.2km/h 61% 0.00in /  0mm
12:50 29.7 °F /  -1.3 °C 17.5 °F /  -8.1 °C 29.94in /  1013.8hPa SW 10.0mph /  16.1km/h 20.0mph /  32.2km/h 60% 0.00in /  0mm
12:55 29.7 °F /  -1.3 °C 17.1 °F /  -8.3 °C 29.96in /  1014.4hPa SW 10.0mph /  16.1km/h 20.0mph /  32.2km/h 59% 0.00in /  0mm
13:00 29.7 °F /  -1.3 °C 17.1 °F /  -8.3 °C 29.95in /  1014.1hPa SW 10.0mph /  16.1km/h 20.0mph /  32.2km/h 59% 0.00in /  0mm
13:05 29.6 °F /  -1.3 °C 16.6 °F /  -8.6 °C 29.93in /  1013.4hPa SW 10.0mph /  16.1km/h 21.0mph /  33.8km/h 58% 0.00in /  0mm
13:10 29.8 °F /  -1.2 °C 16.8 °F /  -8.4 °C 29.94in /  1013.8hPa WSW 12.0mph /  19.3km/h 19.0mph /  30.6km/h 58% 0.00in /  0mm
13:15 29.7 °F /  -1.3 °C 16.3 °F /  -8.7 °C 29.93in /  1013.4hPa WSW 7.0mph /  11.3km/h 20.0mph /  32.2km/h 57% 0.00in /  0mm
13:20 29.8 °F /  -1.2 °C 16.4 °F /  -8.7 °C 29.93in /  1013.4hPa SW 10.0mph /  16.1km/h 20.0mph /  32.2km/h 57% 0.00in /  0mm
13:25 29.7 °F /  -1.3 °C 15.9 °F /  -8.9 °C 29.94in /  1013.8hPa SW 9.0mph /  14.5km/h 19.0mph /  30.6km/h 56% 0.00in /  0mm
13:30 30.1 °F /  -1.1 °C 16.7 °F /  -8.5 °C 29.93in /  1013.4hPa SW 9.0mph /  14.5km/h 22.0mph /  35.4km/h 57% 0.00in /  0mm
13:35 30.1 °F /  -1.1 °C 16.3 °F /  -8.7 °C 29.93in /  1013.4hPa SW 9.0mph /  14.5km/h 22.0mph /  35.4km/h 56% 0.00in /  0mm
13:40 30.0 °F /  -1.1 °C 15.8 °F /  -9 °C 29.92in /  1013.1hPa West 11.0mph /  17.7km/h 20.0mph /  32.2km/h 55% 0.00in /  0mm
13:45 30.1 °F /  -1.1 °C 15.9 °F /  -8.9 °C 29.92in /  1013.1hPa SW 11.0mph /  17.7km/h 22.0mph /  35.4km/h 55% 0.00in /  0mm
13:50 30.4 °F /  -0.9 °C 16.6 °F /  -8.6 °C 29.93in /  1013.4hPa South 6.0mph /  9.7km/h 19.0mph /  30.6km/h 56% 0.00in /  0mm
13:55 30.5 °F /  -0.8 °C 15.8 °F /  -9 °C 29.93in /  1013.4hPa SW 9.0mph /  14.5km/h 20.0mph /  32.2km/h 54% 0.00in /  0mm
14:00 30.3 °F /  -0.9 °C 15.6 °F /  -9.1 °C 29.92in /  1013.1hPa SSW 9.0mph /  14.5km/h 20.0mph /  32.2km/h 54% 0.00in /  0mm
14:05 30.6 °F /  -0.8 °C 15.5 °F /  -9.2 °C 29.93in /  1013.4hPa SSW 9.0mph /  14.5km/h 18.0mph /  29km/h 53% 0.00in /  0mm
14:10 30.7 °F /  -0.7 °C 15.6 °F /  -9.1 °C 29.93in /  1013.4hPa SW 9.0mph /  14.5km/h 18.0mph /  29km/h 53% 0.00in /  0mm
14:15 31.0 °F /  -0.6 °C 15.8 °F /  -9 °C 29.92in /  1013.1hPa SW 8.0mph /  12.9km/h 16.0mph /  25.7km/h 53% 0.00in /  0mm
14:20 31.1 °F /  -0.5 °C 15.9 °F /  -8.9 °C 29.91in /  1012.8hPa South 8.0mph /  12.9km/h 15.0mph /  24.1km/h 53% 0.00in /  0mm
14:25 30.9 °F /  -0.6 °C 15.3 °F /  -9.3 °C 29.92in /  1013.1hPa SW 5.0mph /  8km/h 19.0mph /  30.6km/h 52% 0.00in /  0mm
14:30 30.8 °F /  -0.7 °C 14.8 °F /  -9.6 °C 29.92in /  1013.1hPa SW 6.0mph /  9.7km/h 17.0mph /  27.4km/h 51% 0.00in /  0mm
14:35 31.0 °F /  -0.6 °C 15.0 °F /  -9.4 °C 29.92in /  1013.1hPa South 10.0mph /  16.1km/h 17.0mph /  27.4km/h 51% 0.00in /  0mm
14:40 31.0 °F /  -0.6 °C 15.0 °F /  -9.4 °C 29.91in /  1012.8hPa SSW 7.0mph /  11.3km/h 19.0mph /  30.6km/h 51% 0.00in /  0mm
14:45 31.1 °F /  -0.5 °C 15.1 °F /  -9.4 °C 29.92in /  1013.1hPa WSW 9.0mph /  14.5km/h 19.0mph /  30.6km/h 51% 0.00in /  0mm
14:50 31.1 °F /  -0.5 °C 15.1 °F /  -9.4 °C 29.92in /  1013.1hPa SSW 6.0mph /  9.7km/h 18.0mph /  29km/h 51% 0.00in /  0mm
14:55 31.1 °F /  -0.5 °C 14.6 °F /  -9.7 °C 29.92in /  1013.1hPa SSW 7.0mph /  11.3km/h 17.0mph /  27.4km/h 50% 0.00in /  0mm
15:00 31.0 °F /  -0.6 °C 14.5 °F /  -9.7 °C 29.93in /  1013.4hPa SW 9.0mph /  14.5km/h 19.0mph /  30.6km/h 50% 0.00in /  0mm
15:05 31.1 °F /  -0.5 °C 15.1 °F /  -9.4 °C 29.92in /  1013.1hPa SW 8.0mph /  12.9km/h 19.0mph /  30.6km/h 51% 0.01in /  0.25mm
15:10 31.1 °F /  -0.5 °C 14.1 °F /  -9.9 °C 29.92in /  1013.1hPa SW 8.0mph /  12.9km/h 18.0mph /  29km/h 49% 0.01in /  0.25mm
15:15 31.1 °F /  -0.5 °C 14.1 °F /  -9.9 °C 29.92in /  1013.1hPa SW 8.0mph /  12.9km/h 18.0mph /  29km/h 49% 0.01in /  0.25mm
15:20 31.2 °F /  -0.4 °C 14.7 °F /  -9.6 °C 29.91in /  1012.8hPa SW 7.0mph /  11.3km/h 15.0mph /  24.1km/h 50% 0.01in /  0.25mm
15:25 31.4 °F /  -0.3 °C 15.3 °F /  -9.3 °C 29.91in /  1012.8hPa SW 5.0mph /  8km/h 11.0mph /  17.7km/h 51% 0.01in /  0.25mm
15:30 31.2 °F /  -0.4 °C 15.2 °F /  -9.3 °C 29.90in /  1012.4hPa SW 8.0mph /  12.9km/h 16.0mph /  25.7km/h 51% 0.01in /  0.25mm
15:35 31.1 °F /  -0.5 °C 15.5 °F /  -9.2 °C 29.91in /  1012.8hPa SW 9.0mph /  14.5km/h 13.0mph /  20.9km/h 52% 0.01in /  0.25mm
15:40 31.1 °F /  -0.5 °C 15.5 °F /  -9.2 °C 29.92in /  1013.1hPa SW 7.0mph /  11.3km/h 18.0mph /  29km/h 52% 0.01in /  0.25mm
15:45 31.1 °F /  -0.5 °C 15.5 °F /  -9.2 °C 29.91in /  1012.8hPa SW 9.0mph /  14.5km/h 18.0mph /  29km/h 52% 0.01in /  0.25mm
15:50 31.1 °F /  -0.5 °C 15.5 °F /  -9.2 °C 29.90in /  1012.4hPa SW 7.0mph /  11.3km/h 16.0mph /  25.7km/h 52% 0.01in /  0.25mm
15:55 31.0 °F /  -0.6 °C 15.8 °F /  -9 °C 29.91in /  1012.8hPa WSW 4.0mph /  6.4km/h 15.0mph /  24.1km/h 53% 0.01in /  0.25mm
16:00 31.0 °F /  -0.6 °C 15.8 °F /  -9 °C 29.91in /  1012.8hPa SW 10.0mph /  16.1km/h 16.0mph /  25.7km/h 53% 0.01in /  0.25mm
16:05 31.0 °F /  -0.6 °C 15.4 °F /  -9.2 °C 29.91in /  1012.8hPa SW 8.0mph /  12.9km/h 20.0mph /  32.2km/h 52% 0.00in /  0mm
16:10 31.0 °F /  -0.6 °C 15.4 °F /  -9.2 °C 29.91in /  1012.8hPa WSW 10.0mph /  16.1km/h 20.0mph /  32.2km/h 52% 0.00in /  0mm
16:20 30.8 °F /  -0.7 °C 15.7 °F /  -9.1 °C 29.92in /  1013.1hPa SW 9.0mph /  14.5km/h 18.0mph /  29km/h 53% 0.00in /  0mm
16:25 30.8 °F /  -0.7 °C 15.7 °F /  -9.1 °C 29.91in /  1012.8hPa SW 9.0mph /  14.5km/h 21.0mph /  33.8km/h 53% 0.00in /  0mm
16:30 30.9 °F /  -0.6 °C 16.2 °F /  -8.8 °C 29.92in /  1013.1hPa SW 9.0mph /  14.5km/h 21.0mph /  33.8km/h 54% 0.00in /  0mm
16:35 30.9 °F /  -0.6 °C 16.2 °F /  -8.8 °C 29.92in /  1013.1hPa WSW 4.0mph /  6.4km/h 14.0mph /  22.5km/h 54% 0.00in /  0mm
16:40 30.8 °F /  -0.7 °C 16.5 °F /  -8.6 °C 29.92in /  1013.1hPa SW 9.0mph /  14.5km/h 16.0mph /  25.7km/h 55% 0.00in /  0mm
16:45 30.8 °F /  -0.7 °C 16.9 °F /  -8.4 °C 29.92in /  1013.1hPa SW 9.0mph /  14.5km/h 19.0mph /  30.6km/h 56% 0.00in /  0mm
16:50 30.9 °F /  -0.6 °C 17.0 °F /  -8.3 °C 29.92in /  1013.1hPa WSW 9.0mph /  14.5km/h 16.0mph /  25.7km/h 56% 0.00in /  0mm
16:55 30.8 °F /  -0.7 °C 17.3 °F /  -8.2 °C 29.91in /  1012.8hPa SW 6.0mph /  9.7km/h 13.0mph /  20.9km/h 57% 0.00in /  0mm
17:00 30.4 °F /  -0.9 °C 16.1 °F /  -8.8 °C 29.92in /  1013.1hPa WSW 5.0mph /  8km/h 10.0mph /  16.1km/h 55% 0.00in /  0mm
17:05 30.4 °F /  -0.9 °C 15.7 °F /  -9.1 °C 29.91in /  1012.8hPa SSW 4.0mph /  6.4km/h 15.0mph /  24.1km/h 54% 0.00in /  0mm
17:10 30.4 °F /  -0.9 °C 15.7 °F /  -9.1 °C 29.91in /  1012.8hPa SSW 7.0mph /  11.3km/h 15.0mph /  24.1km/h 54% 0.00in /  0mm
17:20 30.5 °F /  -0.8 °C 16.7 °F /  -8.5 °C 29.91in /  1012.8hPa SW 6.0mph /  9.7km/h 15.0mph /  24.1km/h 56% 0.00in /  0mm
17:25 30.3 °F /  -0.9 °C 15.6 °F /  -9.1 °C 29.90in /  1012.4hPa SW 6.0mph /  9.7km/h 16.0mph /  25.7km/h 54% 0.00in /  0mm
17:30 30.1 °F /  -1.1 °C 15.4 °F /  -9.2 °C 29.90in /  1012.4hPa SSW 6.0mph /  9.7km/h 16.0mph /  25.7km/h 54% 0.00in /  0mm
17:35 30.2 °F /  -1 °C 15.5 °F /  -9.2 °C 29.91in /  1012.8hPa SW 7.0mph /  11.3km/h 17.0mph /  27.4km/h 54% 0.00in /  0mm
17:40 30.1 °F /  -1.1 °C 15.4 °F /  -9.2 °C 29.91in /  1012.8hPa SW 6.0mph /  9.7km/h 13.0mph /  20.9km/h 54% 0.00in /  0mm
17:45 30.2 °F /  -1 °C 15.5 °F /  -9.2 °C 29.92in /  1013.1hPa SSW 6.0mph /  9.7km/h 13.0mph /  20.9km/h 54% 0.00in /  0mm
17:50 30.2 °F /  -1 °C 16.0 °F /  -8.9 °C 29.92in /  1013.1hPa SSW 6.0mph /  9.7km/h 12.0mph /  19.3km/h 55% 0.00in /  0mm
17:55 30.2 °F /  -1 °C 15.5 °F /  -9.2 °C 29.93in /  1013.4hPa SSE 6.0mph /  9.7km/h 13.0mph /  20.9km/h 54% 0.00in /  0mm
18:00 30.3 °F /  -0.9 °C 15.6 °F /  -9.1 °C 29.93in /  1013.4hPa South 8.0mph /  12.9km/h 9.0mph /  14.5km/h 54% 0.00in /  0mm
18:05 30.3 °F /  -0.9 °C 15.6 °F /  -9.1 °C 29.93in /  1013.4hPa South 6.0mph /  9.7km/h 10.0mph /  16.1km/h 54% 0.00in /  0mm
18:10 30.3 °F /  -0.9 °C 16.0 °F /  -8.9 °C 29.93in /  1013.4hPa SW 8.0mph /  12.9km/h 10.0mph /  16.1km/h 55% 0.00in /  0mm
18:15 30.3 °F /  -0.9 °C 16.0 °F /  -8.9 °C 29.93in /  1013.4hPa SSW 5.0mph /  8km/h 11.0mph /  17.7km/h 55% 0.00in /  0mm
18:20 30.2 °F /  -1 °C 16.0 °F /  -8.9 °C 29.93in /  1013.4hPa SSW 6.0mph /  9.7km/h 12.0mph /  19.3km/h 55% 0.00in /  0mm
18:25 30.1 °F /  -1.1 °C 15.9 °F /  -8.9 °C 29.93in /  1013.4hPa SSW 5.0mph /  8km/h 12.0mph /  19.3km/h 55% 0.00in /  0mm
18:30 30.1 °F /  -1.1 °C 15.9 °F /  -8.9 °C 29.93in /  1013.4hPa SSW 5.0mph /  8km/h 11.0mph /  17.7km/h 55% 0.00in /  0mm
18:35 30.1 °F /  -1.1 °C 16.3 °F /  -8.7 °C 29.93in /  1013.4hPa SSW 5.0mph /  8km/h 11.0mph /  17.7km/h 56% 0.00in /  0mm
18:40 30.1 °F /  -1.1 °C 16.3 °F /  -8.7 °C 29.93in /  1013.4hPa SSW 5.0mph /  8km/h 14.0mph /  22.5km/h 56% 0.00in /  0mm
18:45 30.1 °F /  -1.1 °C 15.9 °F /  -8.9 °C 29.93in /  1013.4hPa SW 9.0mph /  14.5km/h 13.0mph /  20.9km/h 55% 0.00in /  0mm
18:50 29.8 °F /  -1.2 °C 15.6 °F /  -9.1 °C 29.93in /  1013.4hPa SSW 5.0mph /  8km/h 13.0mph /  20.9km/h 55% 0.00in /  0mm
18:55 29.7 °F /  -1.3 °C 15.1 °F /  -9.4 °C 29.92in /  1013.1hPa SSW 5.0mph /  8km/h 11.0mph /  17.7km/h 54% 0.00in /  0mm
19:00 29.7 °F /  -1.3 °C 15.5 °F /  -9.2 °C 29.93in /  1013.4hPa WSW 3.0mph /  4.8km/h 17.0mph /  27.4km/h 55% 0.00in /  0mm
19:05 29.7 °F /  -1.3 °C 15.1 °F /  -9.4 °C 29.93in /  1013.4hPa SW 9.0mph /  14.5km/h 11.0mph /  17.7km/h 54% 0.00in /  0mm
19:10 29.6 °F /  -1.3 °C 15.4 °F /  -9.2 °C 29.93in /  1013.4hPa SSW 4.0mph /  6.4km/h 15.0mph /  24.1km/h 55% 0.00in /  0mm
19:15 29.5 °F /  -1.4 °C 15.3 °F /  -9.3 °C 29.92in /  1013.1hPa SSW 5.0mph /  8km/h 14.0mph /  22.5km/h 55% 0.00in /  0mm
19:20 29.4 °F /  -1.4 °C 15.2 °F /  -9.3 °C 29.92in /  1013.1hPa SW 3.0mph /  4.8km/h 13.0mph /  20.9km/h 55% 0.00in /  0mm
19:25 29.3 °F /  -1.5 °C 15.1 °F /  -9.4 °C 29.92in /  1013.1hPa SSW 6.0mph /  9.7km/h 13.0mph /  20.9km/h 55% 0.00in /  0mm
19:30 29.2 °F /  -1.6 °C 14.6 °F /  -9.7 °C 29.92in /  1013.1hPa SSW 5.0mph /  8km/h 12.0mph /  19.3km/h 54% 0.00in /  0mm
19:35 29.1 °F /  -1.6 °C 14.5 °F /  -9.7 °C 29.92in /  1013.1hPa SSW 6.0mph /  9.7km/h 12.0mph /  19.3km/h 54% 0.00in /  0mm
19:40 28.9 °F /  -1.7 °C 14.7 °F /  -9.6 °C 29.91in /  1012.8hPa SSW 5.0mph /  8km/h 11.0mph /  17.7km/h 55% 0.00in /  0mm
19:45 28.8 °F /  -1.8 °C 15.1 °F /  -9.4 °C 29.92in /  1013.1hPa SSW 6.0mph /  9.7km/h 11.0mph /  17.7km/h 56% 0.00in /  0mm
19:50 28.8 °F /  -1.8 °C 15.1 °F /  -9.4 °C 29.93in /  1013.4hPa SSW 4.0mph /  6.4km/h 13.0mph /  20.9km/h 56% 0.00in /  0mm
19:55 28.8 °F /  -1.8 °C 15.1 °F /  -9.4 °C 29.92in /  1013.1hPa WSW 7.0mph /  11.3km/h 12.0mph /  19.3km/h 56% 0.00in /  0mm
20:00 28.7 °F /  -1.8 °C 15.0 °F /  -9.4 °C 29.92in /  1013.1hPa SSW 6.0mph /  9.7km/h 12.0mph /  19.3km/h 56% 0.00in /  0mm
20:05 28.7 °F /  -1.8 °C 15.4 °F /  -9.2 °C 29.92in /  1013.1hPa SSW 7.0mph /  11.3km/h 14.0mph /  22.5km/h 57% 0.00in /  0mm
20:10 28.6 °F /  -1.9 °C 15.3 °F /  -9.3 °C 29.93in /  1013.4hPa West 7.0mph /  11.3km/h 13.0mph /  20.9km/h 57% 0.00in /  0mm
20:15 28.6 °F /  -1.9 °C 14.9 °F /  -9.5 °C 29.94in /  1013.8hPa WSW 9.0mph /  14.5km/h 14.0mph /  22.5km/h 56% 0.00in /  0mm
20:20 28.6 °F /  -1.9 °C 15.3 °F /  -9.3 °C 29.92in /  1013.1hPa South 9.0mph /  14.5km/h 15.0mph /  24.1km/h 57% 0.00in /  0mm
20:25 28.5 °F /  -1.9 °C 14.8 °F /  -9.6 °C 29.91in /  1012.8hPa South 4.0mph /  6.4km/h 14.0mph /  22.5km/h 56% 0.00in /  0mm
20:30 28.5 °F /  -1.9 °C 15.2 °F /  -9.3 °C 29.91in /  1012.8hPa SSW 6.0mph /  9.7km/h 14.0mph /  22.5km/h 57% 0.00in /  0mm
20:35 28.4 °F /  -2 °C 15.1 °F /  -9.4 °C 29.93in /  1013.4hPa SSW 6.0mph /  9.7km/h 14.0mph /  22.5km/h 57% 0.00in /  0mm
20:40 28.3 °F /  -2.1 °C 15.0 °F /  -9.4 °C 29.92in /  1013.1hPa SSW 6.0mph /  9.7km/h 14.0mph /  22.5km/h 57% 0.00in /  0mm
20:45 28.2 °F /  -2.1 °C 14.9 °F /  -9.5 °C 29.93in /  1013.4hPa SSW 6.0mph /  9.7km/h 13.0mph /  20.9km/h 57% 0.00in /  0mm
20:50 28.2 °F /  -2.1 °C 15.3 °F /  -9.3 °C 29.93in /  1013.4hPa SSW 5.0mph /  8km/h 14.0mph /  22.5km/h 58% 0.00in /  0mm
20:55 28.2 °F /  -2.1 °C 15.3 °F /  -9.3 °C 29.93in /  1013.4hPa SSW 5.0mph /  8km/h 14.0mph /  22.5km/h 58% 0.00in /  0mm
21:00 28.2 °F /  -2.1 °C 14.9 °F /  -9.5 °C 29.93in /  1013.4hPa SSW 7.0mph /  11.3km/h 15.0mph /  24.1km/h 57% 0.00in /  0mm
21:05 28.1 °F /  -2.2 °C 15.2 °F /  -9.3 °C 29.93in /  1013.4hPa SSW 6.0mph /  9.7km/h 15.0mph /  24.1km/h 58% 0.00in /  0mm
21:10 28.2 °F /  -2.1 °C 15.3 °F /  -9.3 °C 29.93in /  1013.4hPa South 5.0mph /  8km/h 11.0mph /  17.7km/h 58% 0.00in /  0mm
21:15 28.2 °F /  -2.1 °C 15.3 °F /  -9.3 °C 29.93in /  1013.4hPa SSE 3.0mph /  4.8km/h 14.0mph /  22.5km/h 58% 0.00in /  0mm
21:20 28.2 °F /  -2.1 °C 15.3 °F /  -9.3 °C 29.92in /  1013.1hPa South 6.0mph /  9.7km/h 15.0mph /  24.1km/h 58% 0.00in /  0mm
21:25 28.1 °F /  -2.2 °C 14.8 °F /  -9.6 °C 29.93in /  1013.4hPa SSE 8.0mph /  12.9km/h 16.0mph /  25.7km/h 57% 0.00in /  0mm
21:30 28.2 °F /  -2.1 °C 14.9 °F /  -9.5 °C 29.93in /  1013.4hPa South 8.0mph /  12.9km/h 13.0mph /  20.9km/h 57% 0.00in /  0mm
21:35 28.1 °F /  -2.2 °C 15.2 °F /  -9.3 °C 29.94in /  1013.8hPa SSW 7.0mph /  11.3km/h 16.0mph /  25.7km/h 58% 0.00in /  0mm
21:40 28.1 °F /  -2.2 °C 15.2 °F /  -9.3 °C 29.94in /  1013.8hPa SSW 7.0mph /  11.3km/h 16.0mph /  25.7km/h 58% 0.00in /  0mm
21:45 28.1 °F /  -2.2 °C 15.2 °F /  -9.3 °C 29.94in /  1013.8hPa SSW 7.0mph /  11.3km/h 13.0mph /  20.9km/h 58% 0.00in /  0mm
21:50 28.0 °F /  -2.2 °C 15.1 °F /  -9.4 °C 29.93in /  1013.4hPa SSW 6.0mph /  9.7km/h 13.0mph /  20.9km/h 58% 0.00in /  0mm
21:55 28.0 °F /  -2.2 °C 15.1 °F /  -9.4 °C 29.93in /  1013.4hPa SSW 8.0mph /  12.9km/h 12.0mph /  19.3km/h 58% 0.00in /  0mm
22:00 28.0 °F /  -2.2 °C 15.5 °F /  -9.2 °C 29.93in /  1013.4hPa SSW 9.0mph /  14.5km/h 14.0mph /  22.5km/h 59% 0.00in /  0mm
22:05 28.0 °F /  -2.2 °C 15.1 °F /  -9.4 °C 29.93in /  1013.4hPa South 6.0mph /  9.7km/h 12.0mph /  19.3km/h 58% 0.00in /  0mm
22:10 28.0 °F /  -2.2 °C 15.5 °F /  -9.2 °C 29.93in /  1013.4hPa SSW 6.0mph /  9.7km/h 12.0mph /  19.3km/h 59% 0.00in /  0mm
22:20 28.0 °F /  -2.2 °C 15.5 °F /  -9.2 °C 29.93in /  1013.4hPa SSW 7.0mph /  11.3km/h 11.0mph /  17.7km/h 59% 0.00in /  0mm
22:25 28.0 °F /  -2.2 °C 15.1 °F /  -9.4 °C 29.92in /  1013.1hPa SSW 7.0mph /  11.3km/h 13.0mph /  20.9km/h 58% 0.00in /  0mm
22:35 28.0 °F /  -2.2 °C 15.5 °F /  -9.2 °C 29.92in /  1013.1hPa SSW 3.0mph /  4.8km/h 14.0mph /  22.5km/h 59% 0.00in /  0mm
22:40 28.0 °F /  -2.2 °C 15.5 °F /  -9.2 °C 29.92in /  1013.1hPa SSW 5.0mph /  8km/h 14.0mph /  22.5km/h 59% 0.00in /  0mm
22:45 28.0 °F /  -2.2 °C 15.9 °F /  -8.9 °C 29.92in /  1013.1hPa SSW 4.0mph /  6.4km/h 10.0mph /  16.1km/h 60% 0.00in /  0mm
22:50 27.9 °F /  -2.3 °C 15.8 °F /  -9 °C 29.92in /  1013.1hPa SSW 4.0mph /  6.4km/h 9.0mph /  14.5km/h 60% 0.00in /  0mm
22:55 27.9 °F /  -2.3 °C 15.8 °F /  -9 °C 29.93in /  1013.4hPa SSW 5.0mph /  8km/h 9.0mph /  14.5km/h 60% 0.00in /  0mm
23:00 27.9 °F /  -2.3 °C 15.8 °F /  -9 °C 29.93in /  1013.4hPa SSW 5.0mph /  8km/h 11.0mph /  17.7km/h 60% 0.00in /  0mm
23:05 27.9 °F /  -2.3 °C 15.8 °F /  -9 °C 29.93in /  1013.4hPa South 3.0mph /  4.8km/h 9.0mph /  14.5km/h 60% 0.00in /  0mm
23:10 27.9 °F /  -2.3 °C 16.2 °F /  -8.8 °C 29.93in /  1013.4hPa SSW 2.0mph /  3.2km/h 7.0mph /  11.3km/h 61% 0.00in /  0mm
23:15 27.9 °F /  -2.3 °C 16.2 °F /  -8.8 °C 29.92in /  1013.1hPa SSW 5.0mph /  8km/h 8.0mph /  12.9km/h 61% 0.00in /  0mm
23:20 28.0 °F /  -2.2 °C 16.3 °F /  -8.7 °C 29.92in /  1013.1hPa SSW 4.0mph /  6.4km/h 10.0mph /  16.1km/h 61% 0.00in /  0mm
23:25 28.1 °F /  -2.2 °C 16.7 °F /  -8.5 °C 29.92in /  1013.1hPa SSW 5.0mph /  8km/h 10.0mph /  16.1km/h 62% 0.00in /  0mm
23:30 28.1 °F /  -2.2 °C 16.7 °F /  -8.5 °C 29.92in /  1013.1hPa SSW 5.0mph /  8km/h 9.0mph /  14.5km/h 62% 0.00in /  0mm
23:35 28.2 °F /  -2.1 °C 16.5 °F /  -8.6 °C 29.92in /  1013.1hPa SSW 3.0mph /  4.8km/h 8.0mph /  12.9km/h 61% 0.00in /  0mm
23:40 28.2 °F /  -2.1 °C 16.5 °F /  -8.6 °C 29.92in /  1013.1hPa South 8.0mph /  12.9km/h 12.0mph /  19.3km/h 61% 0.00in /  0mm
23:45 28.2 °F /  -2.1 °C 16.5 °F /  -8.6 °C 29.92in /  1013.1hPa South 6.0mph /  9.7km/h 9.0mph /  14.5km/h 61% 0.00in /  0mm
23:50 28.2 °F /  -2.1 °C 16.5 °F /  -8.6 °C 29.92in /  1013.1hPa South 3.0mph /  4.8km/h 13.0mph /  20.9km/h 61% 0.00in /  0mm
23:55 28.3 °F /  -2.1 °C 16.6 °F /  -8.6 °C 29.92in /  1013.1hPa SSW 5.0mph /  8km/h 13.0mph /  20.9km/h 61% 0.00in /  0mm
Buffalo, New York, USA
Compliments of Weather Underground - 2.25 mb